»·PEaware :: N518HH KSAN-KRAL

N518HH :: KSAN-KRAL

FLIGHT INFORMATION

Flight Status: Arrived
Operator: Privately registered:
United States
More flights under this callsign
Pilot: Edward H. (2712)
Aircraft: BELL TEXTRON JET RANGER
(B06)
More flights by this aircraft type
Origin: KSAN San Diego Intl-Lindbergh
United States
Destination: KRAL Riverside Mun
United States
More flights between these airports :: More routes between these airports
Route: +
File this flight plan on PilotEdge
Remarks:
Altitude:
(Current/Filed)
0ft
Speed:
(Current/Filed)
0kts
Departed: 29-Jan-19 11:35 AM
Arrived: 29-Jan-19 12:10 PM
Distance/Time
Traveled:
76nm/0:35
Distance/Time
To Go:
Arrived

Flight Plot

Page will automatically refresh every two minutes.

Flight plan parsing failed; only flown route is shown


Map Options




Map Legend


Flown Route
Filed Route
Departure Airport
Arrival Airport
Navaid (VOR, NDB)
Fix

Horizontal Profiles

Position Reports

Time Latitude Longitude Heading Altitude Ground
Speed
29-Jan-19 11:27 32.731529 -117.190330 202 21ft 0kts
29-Jan-19 11:28 32.731529 -117.190330 202 21ft 0kts
29-Jan-19 11:29 32.731508 -117.190352 355 21ft 0kts
29-Jan-19 11:30 32.731508 -117.190352 354 21ft 0kts
29-Jan-19 11:31 32.732306 -117.190398 38 30ft 10kts
29-Jan-19 11:32 32.732386 -117.188545 16 21ft 0kts
29-Jan-19 11:33 32.732386 -117.188545 16 21ft 0kts
29-Jan-19 11:34 32.733974 -117.191309 284 75ft 66kts
29-Jan-19 11:35 32.749362 -117.222630 320 446ft 140kts
29-Jan-19 11:36 32.780645 -117.249423 325 578ft 139kts
29-Jan-19 11:37 32.813033 -117.272675 331 692ft 132kts
29-Jan-19 11:38 32.847341 -117.279046 13 1036ft 129kts
29-Jan-19 11:39 32.882486 -117.264600 14 1241ft 136kts
29-Jan-19 11:40 32.920773 -117.261505 351 1233ft 146kts
29-Jan-19 11:41 32.955304 -117.268664 352 1989ft 116kts
29-Jan-19 11:42 32.984554 -117.269289 356 2778ft 118kts
29-Jan-19 11:43 33.018051 -117.265676 1 3286ft 122kts
29-Jan-19 11:44 33.054659 -117.261840 357 3397ft 139kts
29-Jan-19 11:45 33.092045 -117.264537 349 3685ft 139kts
29-Jan-19 11:46 33.131600 -117.270679 7 3757ft 144kts
29-Jan-19 11:47 33.164375 -117.242301 35 3834ft 147kts
29-Jan-19 11:48 33.199135 -117.216363 20 3921ft 142kts
29-Jan-19 11:49 33.233916 -117.204139 27 4543ft 124kts
29-Jan-19 11:50 33.263098 -117.174795 35 4667ft 143kts
29-Jan-19 11:51 33.302382 -117.160698 358 4506ft 142kts
29-Jan-19 11:52 33.340376 -117.160935 359 4637ft 146kts
29-Jan-19 11:53 33.383736 -117.159742 2 4124ft 153kts
29-Jan-19 11:54 33.424862 -117.151154 8 4003ft 148kts
29-Jan-19 11:55 33.468717 -117.143809 357 3203ft 165kts
29-Jan-19 11:56 33.510937 -117.155761 336 3031ft 151kts
29-Jan-19 11:57 33.543118 -117.184900 312 3222ft 138kts
29-Jan-19 11:58 33.569527 -117.217367 316 3561ft 135kts
29-Jan-19 11:59 33.598282 -117.248882 320 3564ft 144kts
29-Jan-19 12:00 33.630223 -117.279780 322 3508ft 143kts
29-Jan-19 12:01 33.662091 -117.310322 322 3310ft 154kts
29-Jan-19 12:02 33.688558 -117.345508 307 3557ft 141kts
29-Jan-19 12:03 33.712398 -117.380716 309 3906ft 134kts
29-Jan-19 12:04 33.738195 -117.409561 346 4285ft 135kts
29-Jan-19 12:05 33.777143 -117.408352 357 4246ft 136kts
29-Jan-19 12:06 33.816897 -117.414571 0 3372ft 139kts
29-Jan-19 12:07 33.851343 -117.414217 65 2990ft 123kts
29-Jan-19 12:08 33.854380 -117.416114 304 2466ft 50kts
29-Jan-19 12:09 33.854884 -117.429439 188 1641ft 17kts
29-Jan-19 12:10 33.852999 -117.428402 92 1388ft 0kts
29-Jan-19 12:11 33.852999 -117.428401 92 1388ft 0kts
29-Jan-19 12:12 33.852999 -117.428401 92 1388ft 0kts
29-Jan-19 12:13 33.853485 -117.425430 64 1909ft 50kts
29-Jan-19 12:14 33.872057 -117.417713 348 2792ft 130kts
29-Jan-19 12:15 33.910006 -117.436011 329 1745ft 140kts
29-Jan-19 12:16 33.934981 -117.446360 355 1223ft 66kts
29-Jan-19 12:17 33.950231 -117.447910 11 948ft 16kts
29-Jan-19 12:18 33.951662 -117.447601 10 826ft 2kts
29-Jan-19 12:19 33.951721 -117.447589 16 820ft 0kts
29-Jan-19 12:20 33.951721 -117.447589 16 820ft 0kts
29-Jan-19 12:21 33.954148 -117.443529 51 964ft 76kts
29-Jan-19 12:22 33.973216 -117.419291 59 1663ft 106kts
29-Jan-19 12:23 33.991298 -117.396846 263 1309ft 95kts

Navigation Log

Ident Type
Flight plan parsing failed, navigation log unavailable